.
WxDataArchive / Data Records for 2016-06-07
2016-06-06 June 2016 2016-06-08

Data Records for Tuesday, 07 June 2016

Time	Temp	Chill	HIndex	Humid	Dewpt	 Wind 	HiWind	WindDir	Rain 	Barom
-----	----	-----	------	-----	-----	------	------	-------	-----	-----
00:00	64.0	64.0	64.0	58	48.9	0	0	---	0.00	29.629 
00:05	63.9	63.9	63.9	58	48.8	0	0	---	0.00	29.629 
00:10	63.7	63.7	63.7	60	49.5	0	0	---	0.00	29.629 
00:15	63.4	63.4	63.4	60	49.3	0	0	---	0.00	29.634 
00:20	63.1	63.1	63.1	61	49.4	0	0	---	0.00	29.634 
00:25	62.7	62.7	62.7	62	49.5	0	0	---	0.00	29.634 
00:30	62.4	62.4	62.4	63	49.6	0	0	---	0.00	29.639 
00:35	62.1	62.1	62.1	63	49.3	0	0	---	0.00	29.639 
00:40	62.0	62.0	62.0	64	49.7	0	0	---	0.00	29.639 
00:45	61.6	61.6	61.6	64	49.3	0	0	---	0.00	29.638 
00:50	61.3	61.3	61.3	65	49.4	0	0	---	0.00	29.638 
00:55	61.0	61.0	61.0	66	49.6	0	0	---	0.00	29.638 
01:00	60.7	60.7	60.7	67	49.7	0	0	---	0.00	29.641 
01:05	60.5	60.5	60.5	67	49.5	0	0	---	0.00	29.641 
01:10	60.4	60.4	60.4	68	49.8	0	0	---	0.00	29.641 
01:15	60.2	60.2	60.2	68	49.6	0	0	---	0.00	29.640 
01:20	60.2	60.2	60.2	68	49.6	0	0	---	0.00	29.640 
01:25	60.4	60.4	60.4	68	49.8	0	0	---	0.00	29.640 
01:30	60.4	60.4	60.4	68	49.8	0	0	---	0.00	29.640 
01:35	60.4	60.4	60.4	68	49.8	0	1	292	0.00	29.640 
01:40	60.4	60.4	60.4	68	49.8	0	1	292	0.00	29.640 
01:45	60.5	60.5	60.5	68	49.9	0	1	292	0.00	29.639 
01:50	60.5	60.5	60.5	68	49.9	0	0	---	0.00	29.639 
01:55	60.4	60.4	60.4	68	49.8	0	0	---	0.00	29.639 
02:00	60.1	60.1	60.1	69	49.9	0	1	292	0.00	29.640 
02:05	59.9	59.9	59.9	69	49.7	0	1	292	0.00	29.640 
02:10	59.8	59.8	59.8	69	49.6	0	1	292	0.00	29.640 
02:15	59.6	59.6	59.6	69	49.4	0	0	---	0.00	29.638 
02:20	59.5	59.5	59.5	70	49.7	0	0	---	0.00	29.638 
02:25	59.3	59.3	59.3	71	49.9	0	0	---	0.00	29.638 
02:30	59.2	59.2	59.2	71	49.8	0	0	---	0.00	29.640 
02:35	59.0	59.0	59.0	71	49.6	0	0	---	0.00	29.640 
02:40	58.7	58.7	58.7	72	49.7	0	0	---	0.00	29.640 
02:45	58.6	58.6	58.6	73	50.0	0	0	---	0.00	29.639 
02:50	58.3	58.3	58.3	73	49.7	0	0	---	0.00	29.639 
02:55	58.1	58.1	58.1	74	49.9	0	0	---	0.00	29.639 
03:00	58.0	58.0	58.0	74	49.8	0	0	---	0.00	29.640 
03:05	58.0	58.0	58.0	74	49.8	0	0	---	0.00	29.640 
03:10	58.0	58.0	58.0	74	49.8	0	0	---	0.00	29.640 
03:15	58.0	58.0	58.0	75	50.1	0	0	---	0.00	29.640 
03:20	57.8	57.8	57.8	75	49.9	0	0	---	0.00	29.640 
03:25	57.6	57.6	57.6	75	49.7	0	0	---	0.00	29.640 
03:30	57.6	57.6	57.6	75	49.7	0	0	---	0.00	29.641 
03:35	57.6	57.6	57.6	75	49.7	0	0	---	0.00	29.641 
03:40	57.6	57.6	57.6	75	49.7	0	1	292	0.00	29.641 
03:45	57.6	57.6	57.6	75	49.7	0	0	---	0.00	29.640 
03:50	57.5	57.5	57.5	75	49.6	0	0	---	0.00	29.640 
03:55	57.3	57.3	57.3	76	49.8	0	0	---	0.00	29.640 
04:00	57.2	57.2	57.2	76	49.7	0	0	---	0.00	29.638 
04:05	56.9	56.9	56.9	76	49.4	0	0	---	0.00	29.638 
04:10	56.6	56.6	56.6	77	49.5	0	0	---	0.00	29.638 
04:15	56.3	56.3	56.3	78	49.5	0	0	---	0.00	29.645 
04:20	56.3	56.3	56.3	78	49.5	0	1	292	0.00	29.645 
04:25	56.2	56.2	56.2	79	49.8	0	1	292	0.00	29.645 
04:30	56.2	56.2	56.2	79	49.8	0	0	---	0.00	29.648 
04:35	56.2	56.2	56.2	79	49.8	0	1	292	0.00	29.648 
04:40	56.2	56.2	56.2	80	50.1	0	0	---	0.00	29.648 
04:45	56.2	56.2	56.2	80	50.1	0	0	---	0.00	29.647 
04:50	56.0	56.0	56.0	80	49.9	0	1	292	0.00	29.647 
04:55	56.0	56.0	56.0	80	49.9	0	0	---	0.00	29.647 
05:00	56.0	56.0	56.0	80	49.9	0	1	292	0.00	29.647 
05:05	55.9	55.9	55.9	80	49.8	0	0	---	0.00	29.647 
05:10	55.7	55.7	55.7	81	50.0	0	0	---	0.00	29.647 
05:15	55.7	55.7	55.7	81	50.0	0	1	292	0.00	29.659 
05:20	55.7	55.7	55.7	81	50.0	0	1	292	0.00	29.659 
05:25	55.6	55.6	55.6	81	49.9	0	2	292	0.00	29.659 
05:30	55.6	55.6	55.6	82	50.2	0	1	292	0.00	29.664 
05:35	55.7	55.7	55.7	82	50.3	0	1	292	0.00	29.664 
05:40	55.7	55.7	55.7	82	50.3	0	1	292	0.00	29.664 
05:45	55.7	55.7	55.7	82	50.3	0	1	292	0.00	29.669 
05:50	55.6	55.6	55.6	82	50.2	0	1	292	0.00	29.669 
05:55	55.6	55.6	55.6	82	50.2	0	1	292	0.00	29.669 
06:00	55.6	55.6	55.6	83	50.5	0	1	292	0.00	29.675 
06:05	55.6	55.6	55.6	83	50.5	0	1	292	0.00	29.675 
06:10	55.6	55.6	55.6	83	50.5	0	1	292	0.00	29.675 
06:15	55.4	55.4	55.4	83	50.3	0	1	292	0.00	29.682 
06:20	55.4	55.4	55.4	84	50.6	0	1	292	0.00	29.682 
06:25	55.3	55.3	55.3	84	50.5	0	1	292	0.00	29.682 
06:30	55.3	55.3	55.3	84	50.5	0	1	292	0.00	29.684 
06:35	55.3	55.3	55.3	84	50.5	0	1	292	0.00	29.684 
06:40	55.3	55.3	55.3	84	50.5	0	1	292	0.00	29.684 
06:45	55.4	55.4	55.4	85	51.0	0	1	292	0.00	29.687 
06:50	55.4	55.4	55.4	85	51.0	0	2	292	0.00	29.687 
06:55	55.6	55.6	55.6	85	51.2	0	2	292	0.00	29.687 
07:00	55.7	55.7	55.7	85	51.3	0	1	292	0.00	29.691 
07:05	55.9	55.9	55.9	85	51.5	0	2	292	0.00	29.691 
07:10	56.0	56.0	56.0	85	51.6	0	2	292	0.00	29.691 
07:15	56.2	56.2	56.2	85	51.7	1	3	292	0.00	29.697 
07:20	56.3	56.3	56.3	85	51.8	1	3	292	0.00	29.697 
07:25	56.5	56.5	56.5	85	52.0	1	4	292	0.00	29.697 
07:30	56.7	56.7	56.7	84	51.9	1	3	292	0.00	29.699 
07:35	57.0	57.0	57.0	84	52.2	0	2	292	0.00	29.699 
07:40	57.2	57.2	57.2	84	52.4	1	4	292	0.00	29.699 
07:45	57.3	57.3	57.3	84	52.5	2	5	270	0.00	29.709 
07:50	57.5	57.5	57.5	83	52.4	1	5	292	0.00	29.709 
07:55	57.5	57.5	57.5	83	52.4	2	5	292	0.00	29.709 
08:00	57.5	57.5	57.5	82	52.0	1	4	270	0.00	29.711 
08:05	57.6	57.6	57.6	81	51.8	2	5	292	0.00	29.711 
08:10	57.6	57.6	57.6	81	51.8	1	6	270	0.00	29.711 
08:15	57.6	57.6	57.6	80	51.5	2	5	292	0.00	29.714 
08:20	57.8	57.8	57.8	80	51.7	2	5	292	0.00	29.714 
08:25	57.8	57.8	57.8	80	51.7	2	4	315	0.00	29.714 
08:30	58.0	58.0	58.0	79	51.5	2	4	315	0.00	29.716 
08:35	58.4	58.4	58.4	78	51.6	2	4	292	0.00	29.716 
08:40	58.7	58.7	58.7	77	51.5	2	5	292	0.00	29.716 
08:45	59.2	59.2	59.2	74	50.9	1	4	292	0.00	29.718 
08:50	59.3	59.3	59.3	72	50.3	2	4	292	0.00	29.718 
08:55	59.3	59.3	59.3	70	49.5	3	7	315	0.00	29.718 
09:00	59.5	59.5	59.5	70	49.7	2	7	292	0.00	29.722 
09:05	59.8	59.8	59.8	69	49.6	2	5	292	0.00	29.722 
09:10	59.9	59.9	59.9	67	48.9	3	7	292	0.00	29.722 
09:15	60.4	60.4	60.4	66	49.0	2	6	292	0.00	29.728 
09:20	60.5	60.5	60.5	66	49.1	2	6	338	0.00	29.728 
09:25	60.5	60.5	60.5	64	48.3	4	10	292	0.00	29.728 
09:30	60.1	60.1	60.1	64	47.9	4	10	292	0.00	29.732 
09:35	60.1	60.1	60.1	65	48.3	4	12	315	0.00	29.732 
09:40	60.4	60.4	60.4	65	48.6	3	6	292	0.00	29.732 
09:45	60.7	60.7	60.7	65	48.9	2	6	292	0.00	29.731 
09:50	61.3	61.3	61.3	65	49.4	3	9	292	0.00	29.731 
09:55	61.0	61.0	61.0	63	48.3	3	7	292	0.00	29.731 
10:00	61.0	61.0	61.0	64	48.7	1	4	315	0.00	29.731 
10:05	60.9	60.9	60.9	62	47.8	3	6	292	0.00	29.731 
10:10	60.4	60.4	60.4	62	47.3	5	12	292	0.00	29.731 
10:15	60.5	60.5	60.5	63	47.8	3	10	292	0.00	29.742 
10:20	60.4	60.4	60.4	63	47.7	4	10	292	0.00	29.742 
10:25	60.5	60.5	60.5	65	48.7	2	6	292	0.00	29.742 
10:30	60.7	60.7	60.7	63	48.0	2	7	315	0.00	29.742 
10:35	60.7	60.7	60.7	63	48.0	3	7	315	0.00	29.742 
10:40	60.9	60.9	60.9	63	48.2	4	8	292	0.00	29.742 
10:45	61.0	61.0	61.0	62	47.9	3	10	292	0.00	29.742 
10:50	61.2	61.2	61.2	62	48.1	3	9	292	0.00	29.742 
10:55	61.6	61.6	61.6	62	48.4	3	11	292	0.00	29.742 
11:00	61.8	61.8	61.8	60	47.8	3	6	315	0.00	29.743 
11:05	62.1	62.1	62.1	61	48.5	3	10	292	0.00	29.743 
11:10	62.4	62.4	62.4	59	47.9	2	6	292	0.00	29.743 
11:15	62.6	62.6	62.6	59	48.1	3	9	292	0.00	29.746 
11:20	62.4	62.4	62.4	60	48.3	3	5	270	0.00	29.746 
11:25	62.1	62.1	62.1	58	47.1	4	7	292	0.00	29.746 
11:30	62.0	62.0	62.0	60	48.0	2	5	292	0.00	29.747 
11:35	62.4	62.4	62.4	60	48.3	2	7	315	0.00	29.747 
11:40	62.1	62.1	62.1	60	48.0	3	7	315	0.00	29.747 
11:45	62.0	62.0	62.0	61	48.4	3	6	292	0.00	29.748 
11:50	62.0	62.0	62.0	60	48.0	3	7	292	0.00	29.748 
11:55	62.3	62.3	62.3	62	49.1	3	9	292	0.00	29.748 
12:00	63.1	63.1	63.1	60	49.0	3	6	292	0.00	29.748 
12:05	63.4	63.4	63.4	59	48.8	3	9	292	0.00	29.748 
12:10	63.1	63.1	63.1	58	48.1	2	5	292	0.00	29.748 
12:15	63.1	63.1	63.1	58	48.1	3	7	315	0.00	29.754 
12:20	62.3	62.3	62.3	59	47.8	4	7	270	0.00	29.754 
12:25	62.0	62.0	62.0	61	48.4	2	5	292	0.00	29.754 
12:30	62.0	62.0	62.0	62	48.8	3	6	270	0.00	29.760 
12:35	62.3	62.3	62.3	61	48.7	3	7	292	0.00	29.760 
12:40	62.4	62.4	62.4	60	48.3	2	9	315	0.00	29.760 
12:45	62.4	62.4	62.4	61	48.8	2	5	315	0.00	29.764 
12:50	62.3	62.3	62.3	61	48.7	2	6	292	0.00	29.764 
12:55	62.1	62.1	62.1	61	48.5	3	9	292	0.00	29.764 
13:00	62.4	62.4	62.4	61	48.8	2	6	292	0.00	29.763 
13:05	62.7	62.7	62.7	61	49.1	2	7	292	0.00	29.763 
13:10	63.2	63.2	63.2	59	48.6	3	7	292	0.00	29.763 
13:15	63.5	63.5	63.5	59	48.9	3	7	292	0.00	29.762 
13:20	63.7	63.7	63.7	58	48.6	2	7	338	0.00	29.762 
13:25	63.9	63.9	63.9	58	48.8	2	6	315	0.00	29.762 
13:30	63.4	63.4	63.4	58	48.4	3	8	270	0.00	29.760 
13:35	63.5	63.5	63.5	59	48.9	3	6	292	0.00	29.760 
13:40	63.7	63.7	63.7	59	49.1	3	6	270	0.00	29.760 
13:45	63.4	63.4	63.4	59	48.8	3	7	292	0.00	29.763 
13:50	63.1	63.1	63.1	61	49.4	3	6	292	0.00	29.763 
13:55	63.1	63.1	63.1	61	49.4	3	10	292	0.00	29.763 
14:00	63.1	63.1	63.1	60	49.0	3	7	315	0.00	29.766 
14:05	63.7	63.7	63.7	60	49.5	3	7	315	0.00	29.766 
14:10	64.5	64.5	64.5	60	50.3	2	7	292	0.00	29.766 
14:15	64.8	64.8	64.8	59	50.1	4	7	270	0.00	29.766 
14:20	64.7	64.7	64.7	59	50.0	4	10	292	0.00	29.766 
14:25	64.7	64.7	64.7	60	50.5	2	7	292	0.00	29.766 
14:30	64.5	64.5	64.5	58	49.4	3	7	292	0.00	29.770 
14:35	64.3	64.3	64.3	58	49.2	3	7	292	0.00	29.770 
14:40	64.7	64.7	64.7	59	50.0	2	10	315	0.00	29.770 
14:45	65.0	65.0	65.0	57	49.4	2	5	315	0.00	29.768 
14:50	65.0	65.0	65.0	57	49.4	3	5	315	0.00	29.768 
14:55	64.5	64.5	64.5	58	49.4	2	5	292	0.00	29.768 
15:00	64.2	64.2	64.2	58	49.1	2	5	292	0.00	29.770 
15:05	63.9	63.9	63.9	59	49.3	2	6	315	0.00	29.770 
15:10	63.5	63.5	63.5	59	48.9	3	6	292	0.00	29.770 
15:15	63.7	63.7	63.7	60	49.5	2	4	270	0.00	29.777 
15:20	63.9	63.9	63.9	60	49.7	3	5	292	0.00	29.777 
15:25	64.2	64.2	64.2	59	49.6	2	4	292	0.00	29.777 
15:30	64.2	64.2	64.2	58	49.1	3	7	315	0.00	29.780 
15:35	64.0	64.0	64.0	58	48.9	3	5	315	0.00	29.780 
15:40	63.9	63.9	63.9	60	49.7	3	7	270	0.00	29.780 
15:45	63.7	63.7	63.7	61	50.0	3	6	292	0.00	29.782 
15:50	63.9	63.9	63.9	61	50.2	2	5	292	0.00	29.782 
15:55	64.0	64.0	64.0	58	48.9	2	6	292	0.00	29.782 
16:00	64.0	64.0	64.0	58	48.9	2	7	292	0.00	29.782 
16:05	64.0	64.0	64.0	58	48.9	3	5	292	0.00	29.782 
16:10	64.0	64.0	64.0	58	48.9	1	5	292	0.00	29.782 
16:15	64.0	64.0	64.0	59	49.4	2	5	338	0.00	29.781 
16:20	64.2	64.2	64.2	57	48.6	3	6	292	0.00	29.781 
16:25	64.5	64.5	64.5	58	49.4	2	5	292	0.00	29.781 
16:30	64.8	64.8	64.8	58	49.7	3	5	292	0.00	29.780 
16:35	64.7	64.7	64.7	56	48.6	3	10	292	0.00	29.780 
16:40	64.3	64.3	64.3	56	48.3	3	9	292	0.00	29.780 
16:45	64.3	64.3	64.3	57	48.7	3	7	292	0.00	29.782 
16:50	64.3	64.3	64.3	57	48.7	2	6	292	0.00	29.782 
16:55	64.2	64.2	64.2	58	49.1	2	5	338	0.00	29.782 
17:00	64.2	64.2	64.2	59	49.6	2	5	315	0.00	29.782 
17:05	64.2	64.2	64.2	58	49.1	3	7	292	0.00	29.782 
17:10	64.0	64.0	64.0	58	48.9	2	5	292	0.00	29.782 
17:15	63.9	63.9	63.9	58	48.8	2	5	292	0.00	29.782 
17:20	63.7	63.7	63.7	59	49.1	2	4	292	0.00	29.782 
17:25	63.5	63.5	63.5	60	49.4	2	6	292	0.00	29.782 
17:30	63.2	63.2	63.2	60	49.1	3	6	292	0.00	29.786 
17:35	62.9	62.9	62.9	61	49.2	3	8	292	0.00	29.786 
17:40	62.9	62.9	62.9	60	48.8	3	7	315	0.00	29.786 
17:45	63.1	63.1	63.1	59	48.5	2	6	292	0.00	29.788 
17:50	63.4	63.4	63.4	58	48.4	2	6	292	0.00	29.788 
17:55	63.5	63.5	63.5	59	48.9	2	7	292	0.00	29.788 
18:00	63.4	63.4	63.4	59	48.8	2	5	292	0.00	29.794 
18:05	63.2	63.2	63.2	61	49.5	2	6	292	0.00	29.794 
18:10	63.1	63.1	63.1	60	49.0	2	5	292	0.00	29.794 
18:15	62.9	62.9	62.9	59	48.3	3	7	292	0.00	29.798 
18:20	62.7	62.7	62.7	59	48.2	2	7	292	0.00	29.798 
18:25	62.7	62.7	62.7	58	47.7	2	5	292	0.00	29.798 
18:30	62.9	62.9	62.9	58	47.9	2	4	292	0.00	29.800 
18:35	62.9	62.9	62.9	57	47.4	2	6	315	0.00	29.800 
18:40	62.9	62.9	62.9	57	47.4	3	7	292	0.00	29.800 
18:45	62.9	62.9	62.9	58	47.9	3	7	292	0.00	29.795 
18:50	63.4	63.4	63.4	57	47.9	3	7	292	0.00	29.795 
18:55	63.5	63.5	63.5	56	47.5	4	10	292	0.00	29.795 
19:00	63.5	63.5	63.5	56	47.5	4	7	292	0.00	29.796 
19:05	63.7	63.7	63.7	57	48.2	3	7	292	0.00	29.796 
19:10	63.4	63.4	63.4	59	48.8	2	8	292	0.00	29.796 
19:15	62.9	62.9	62.9	59	48.3	3	7	315	0.00	29.798 
19:20	62.6	62.6	62.6	59	48.1	4	10	292	0.00	29.798 
19:25	62.1	62.1	62.1	60	48.0	2	5	292	0.00	29.798 
19:30	61.5	61.5	61.5	60	47.5	3	6	292	0.00	29.800 
19:35	60.9	60.9	60.9	61	47.4	3	9	292	0.00	29.800 
19:40	60.7	60.7	60.7	62	47.6	2	5	292	0.00	29.800 
19:45	60.5	60.5	60.5	62	47.4	2	10	315	0.00	29.805 
19:50	60.5	60.5	60.5	62	47.4	2	7	292	0.00	29.805 
19:55	60.5	60.5	60.5	60	46.5	3	9	292	0.00	29.805 
20:00	60.5	60.5	60.5	61	47.0	2	6	292	0.00	29.812 
20:05	60.5	60.5	60.5	61	47.0	2	6	292	0.00	29.812 
20:10	60.5	60.5	60.5	61	47.0	2	7	315	0.00	29.812 
20:15	60.4	60.4	60.4	61	46.9	2	5	292	0.00	29.815 
20:20	60.4	60.4	60.4	61	46.9	2	6	292	0.00	29.815 
20:25	60.4	60.4	60.4	61	46.9	2	4	292	0.00	29.815 
20:30	60.2	60.2	60.2	61	46.7	2	5	292	0.00	29.814 
20:35	59.9	59.9	59.9	62	46.8	1	6	292	0.00	29.814 
20:40	59.6	59.6	59.6	62	46.6	2	5	292	0.00	29.814 
20:45	59.5	59.5	59.5	62	46.5	1	4	292	0.00	29.815 
20:50	59.3	59.3	59.3	63	46.7	1	4	292	0.00	29.815 
20:55	59.2	59.2	59.2	63	46.6	1	3	315	0.00	29.815 
21:00	59.0	59.0	59.0	64	46.8	1	4	315	0.00	29.816 
21:05	58.9	58.9	58.9	65	47.2	1	3	292	0.00	29.816 
21:10	58.7	58.7	58.7	65	47.0	1	4	292	0.00	29.816 
21:15	58.6	58.6	58.6	66	47.3	0	2	292	0.00	29.818 
21:20	58.4	58.4	58.4	66	47.1	0	2	292	0.00	29.818 
21:25	58.3	58.3	58.3	66	47.0	0	2	292	0.00	29.818 
21:30	58.1	58.1	58.1	67	47.2	0	2	292	0.00	29.823 
21:35	58.0	58.0	58.0	67	47.1	0	1	292	0.00	29.823 
21:40	58.0	58.0	58.0	68	47.5	0	0	---	0.00	29.823 
21:45	57.8	57.8	57.8	69	47.7	0	0	---	0.00	29.831 
21:50	57.5	57.5	57.5	69	47.4	0	0	---	0.00	29.831 
21:55	57.3	57.3	57.3	70	47.6	0	1	292	0.00	29.831 
22:00	57.3	57.3	57.3	71	48.0	0	1	292	0.00	29.832 
22:05	57.2	57.2	57.2	71	47.9	0	1	292	0.00	29.832 
22:10	57.2	57.2	57.2	71	47.9	0	4	292	0.00	29.832 
22:15	57.2	57.2	57.2	71	47.9	0	3	292	0.00	29.835 
22:20	57.0	57.0	57.0	71	47.7	0	1	292	0.00	29.835 
22:25	56.9	56.9	56.9	71	47.6	0	1	292	0.00	29.835 
22:30	56.7	56.7	56.7	71	47.4	0	2	292	0.00	29.837 
22:35	56.6	56.6	56.6	71	47.3	0	1	292	0.00	29.837 
22:40	56.5	56.5	56.5	72	47.6	0	0	---	0.00	29.837 
22:45	56.3	56.3	56.3	72	47.4	0	1	292	0.00	29.843 
22:50	56.2	56.2	56.2	72	47.3	0	1	292	0.00	29.843 
22:55	56.2	56.2	56.2	72	47.3	0	1	292	0.00	29.843 
23:00	56.2	56.2	56.2	72	47.3	0	1	292	0.00	29.844 
23:05	56.2	56.2	56.2	72	47.3	0	1	292	0.00	29.844 
23:10	56.2	56.2	56.2	73	47.7	0	1	292	0.00	29.844 
23:15	56.3	56.3	56.3	73	47.8	0	0	---	0.00	29.848 
23:20	56.3	56.3	56.3	73	47.8	0	0	---	0.00	29.848 
23:25	56.3	56.3	56.3	73	47.8	0	1	292	0.00	29.848 
23:30	56.5	56.5	56.5	73	47.9	0	1	292	0.00	29.856 
23:35	56.5	56.5	56.5	73	47.9	0	2	292	0.00	29.856 
23:40	56.5	56.5	56.5	73	47.9	0	1	292	0.00	29.856 
23:45	56.5	56.5	56.5	73	47.9	1	2	292	0.00	29.852 
23:50	56.5	56.5	56.5	73	47.9	1	4	292	0.00	29.852 
23:55	56.5	56.5	56.5	74	48.3	0	2	292	0.00	29.852 

CoCoRaHS
IN-AL-39
A2 Web Hosting
Creative Commons License
GoDaddy
search engine by freefind advanced

loaded 2018-11-14 04:29:52 • last modified 2010-11-18 10:43:29
Privacy PolicyDisclaimer
• wx.awcolley.com is powered by PmWiki v.2002016 •
• all content (unless otherwise noted) © 2018 A W Colley